Time;durP1;ratioP1;P1;durP2;ratioP2;P2;SDS_P1;SDS_P2;PMS_P1;PMS_P2;Temp;Humidity;BMP_temperature;BMP_pressure;BME280_temperature;BME280_humidity;BME280_pressure;Samples;Min_cycle;Max_cycle;Signal;HPM_P1;HPM_P2
2022/03/03 09:04:06;;;;;;;42.63;19.88;;;;;;;8.33;42.69;102013.66;5028362;28;20264;-52
2022/03/03 09:06:32;;;;;;;38.35;19.40;;;;;;;8.24;43.00;102014.13;5031275;28;20041;-52
2022/03/03 09:08:57;;;;;;;36.30;19.17;;;;;;;8.47;42.94;102026.41;5018645;28;20048;-50
2022/03/03 09:11:23;;;;;;;36.50;19.00;;;;;;;8.09;42.21;102024.78;5028394;28;20092;-51
2022/03/03 09:13:48;;;;;;;36.25;19.23;;;;;;;8.37;42.06;102013.84;5031963;28;20071;-52
2022/03/03 09:16:16;;;;;;;34.38;18.40;;;;;;;8.38;41.73;102006.94;5023990;28;20084;-50
2022/03/03 09:18:42;;;;;;;37.05;18.77;;;;;;;8.46;41.40;102018.53;4989636;28;20046;-52
2022/03/03 09:21:08;;;;;;;34.40;17.77;;;;;;;8.17;41.67;102012.13;4989146;28;20447;-54
2022/03/03 09:23:34;;;;;;;40.38;18.05;;;;;;;8.58;40.94;102016.44;4992227;28;20624;-54
2022/03/03 09:25:59;;;;;;;37.35;18.02;;;;;;;8.98;41.54;102008.44;4988852;28;20057;-51
2022/03/03 09:28:24;;;;;;;34.60;18.27;;;;;;;9.27;40.28;102015.59;4993113;28;20049;-53
2022/03/03 09:30:51;;;;;;;34.10;18.73;;;;;;;9.56;39.86;102011.47;4990366;28;20041;-55
2022/03/03 09:33:16;;;;;;;32.63;17.63;;;;;;;9.62;39.14;102008.19;4988649;28;20053;-52
2022/03/03 09:35:42;;;;;;;31.48;17.70;;;;;;;9.82;39.30;102001.94;4999013;28;20497;-54
2022/03/03 09:38:10;;;;;;;31.52;17.58;;;;;;;9.80;39.07;102001.03;4993628;28;20099;-52
2022/03/03 09:40:35;;;;;;;32.55;17.58;;;;;;;9.92;38.69;102003.16;4996642;28;20108;-51
2022/03/03 09:43:06;;;;;;;32.92;18.25;;;;;;;9.99;38.35;102005.13;4989529;28;20572;-52
2022/03/03 09:45:34;;;;;;;31.73;18.05;;;;;;;10.15;38.93;102003.09;4996762;28;20099;-51
2022/03/03 09:48:00;;;;;;;35.30;18.60;;;;;;;10.18;38.71;101998.00;4999642;28;20456;-50
2022/03/03 09:50:26;;;;;;;33.33;18.25;;;;;;;10.05;38.65;102003.63;4994564;28;20133;-53
2022/03/03 09:52:53;;;;;;;32.92;17.85;;;;;;;10.20;38.79;102010.19;4988868;28;20578;-54
2022/03/03 09:55:18;;;;;;;34.17;17.77;;;;;;;9.93;38.51;102011.03;4995874;28;20053;-52
2022/03/03 09:57:47;;;;;;;33.20;17.92;;;;;;;9.75;38.81;102000.88;4993642;28;20464;-52
2022/03/03 10:00:12;;;;;;;33.55;17.50;;;;;;;10.06;38.50;101999.31;4997789;28;20539;-51
2022/03/03 10:02:58;;;;;;;34.85;17.42;;;;;;;10.16;37.69;101997.09;4991743;28;20049;-52
2022/03/03 10:05:38;;;;;;;35.88;18.05;;;;;;;10.40;37.78;102001.31;5000053;28;20051;-51
2022/03/03 10:08:11;;;;;;;34.90;17.88;;;;;;;10.27;37.56;101993.94;4994547;28;20037;-53
2022/03/03 10:10:40;;;;;;;30.90;17.02;;;;;;;9.99;37.25;101993.00;4992426;28;20037;-51
2022/03/03 10:13:06;;;;;;;32.17;17.45;;;;;;;10.25;37.02;101991.25;4992200;28;20037;-52
2022/03/03 10:15:32;;;;;;;32.22;17.27;;;;;;;10.02;37.27;101995.69;4982544;28;20103;-54
2022/03/03 10:18:01;;;;;;;33.83;17.77;;;;;;;10.09;37.06;101999.38;4976882;28;20081;-51
2022/03/03 10:20:28;;;;;;;32.63;16.98;;;;;;;10.36;36.58;101992.53;4978529;28;20396;-54
2022/03/03 10:22:57;;;;;;;32.22;16.65;;;;;;;10.46;35.89;101988.47;4975222;28;20080;-53
2022/03/03 10:25:29;;;;;;;32.05;16.75;;;;;;;10.16;37.08;101986.66;4977823;28;20046;-52
2022/03/03 10:27:54;;;;;;;32.90;17.58;;;;;;;10.44;37.22;101997.94;4975385;28;20050;-52
2022/03/03 10:30:19;;;;;;;32.17;17.77;;;;;;;10.65;38.15;102000.34;4985302;28;20100;-50
2022/03/03 10:32:46;;;;;;;33.20;17.50;;;;;;;10.42;36.91;101989.22;4976514;28;20054;-53
2022/03/03 10:35:14;;;;;;;32.00;17.75;;;;;;;10.38;36.40;101996.03;4979359;28;20073;-54
2022/03/03 10:37:41;;;;;;;30.92;17.27;;;;;;;10.62;36.28;101992.44;4974737;28;20303;-53
2022/03/03 10:40:13;;;;;;;34.70;17.90;;;;;;;10.58;37.36;101988.84;4975175;28;20042;-52
2022/03/03 10:42:44;;;;;;;32.38;17.73;;;;;;;10.76;36.54;101985.91;4978329;28;20045;-50
2022/03/03 10:45:19;;;;;;;32.53;16.90;;;;;;;10.56;36.20;101987.91;4994551;28;22415;-53
2022/03/03 10:47:59;;;;;;;34.30;17.13;;;;;;;10.74;36.24;101982.38;4986007;28;20529;-55
2022/03/03 10:50:25;;;;;;;33.55;17.10;;;;;;;11.01;37.25;101988.41;4983293;28;20051;-50
2022/03/03 10:52:50;;;;;;;30.67;17.27;;;;;;;11.22;35.76;101986.41;4976410;28;20501;-51
2022/03/03 10:55:17;;;;;;;36.80;17.65;;;;;;;11.19;36.85;101988.06;4981239;28;20212;-49
2022/03/03 10:57:46;;;;;;;31.00;16.30;;;;;;;11.19;34.63;101983.72;4979351;28;20038;-53
2022/03/03 11:00:13;;;;;;;34.22;16.88;;;;;;;11.37;35.32;101980.75;4982245;28;20119;-50
2022/03/03 11:02:44;;;;;;;28.10;16.35;;;;;;;11.48;34.46;101978.44;4980643;28;20461;-50
2022/03/03 11:05:16;;;;;;;28.85;16.45;;;;;;;11.42;35.05;101984.38;4991621;28;20046;-52
2022/03/03 11:07:49;;;;;;;28.98;16.17;;;;;;;11.29;35.04;101982.25;4981050;28;20096;-50
2022/03/03 11:10:27;;;;;;;30.02;16.33;;;;;;;11.50;34.23;101968.91;4981868;28;20049;-55
2022/03/03 11:12:57;;;;;;;31.63;15.98;;;;;;;11.38;34.17;101969.47;4969770;28;20088;-53
2022/03/03 11:15:24;;;;;;;27.35;15.05;;;;;;;11.19;34.53;101970.69;4986798;28;20493;-54
2022/03/03 11:18:04;;;;;;;28.98;16.05;;;;;;;11.18;33.92;101965.41;4982514;28;20038;-54
2022/03/03 11:20:29;;;;;;;29.50;15.02;;;;;;;11.50;33.24;101967.19;4982110;28;20317;-54
2022/03/03 11:22:56;;;;;;;25.77;15.30;;;;;;;11.50;33.41;101964.56;4972398;28;20301;-52
2022/03/03 11:25:32;;;;;;;30.75;15.52;;;;;;;11.49;34.17;101962.81;4977002;28;20878;-51
2022/03/03 11:28:07;;;;;;;28.98;15.88;;;;;;;11.53;33.52;101959.41;4977408;28;20545;-50
2022/03/03 11:30:32;;;;;;;;;;;;;;;11.44;32.93;101953.09;4984255;28;20038;-52
2022/03/03 11:33:27;;;;;;;26.48;13.75;;;;;;;11.33;33.13;101956.28;4971008;28;20388;-50
2022/03/03 11:35:58;;;;;;;24.70;13.57;;;;;;;11.59;31.93;101946.53;4975144;28;20115;-52
2022/03/03 11:38:26;;;;;;;25.05;13.85;;;;;;;11.69;32.23;101945.94;4979809;28;20046;-49
2022/03/03 11:41:05;;;;;;;25.40;13.93;;;;;;;11.77;31.95;101940.97;4969170;28;20123;-49
2022/03/03 11:43:46;;;;;;;27.08;14.82;;;;;;;11.73;32.39;101939.06;4980183;28;20377;-50
2022/03/03 11:46:12;;;;;;;30.00;15.27;;;;;;;11.63;32.89;101935.34;4996772;28;20451;-52
2022/03/03 11:48:38;;;;;;;27.60;15.20;;;;;;;12.03;32.60;101938.97;4977622;28;20525;-52
2022/03/03 11:51:42;;;;;;;23.85;13.55;;;;;;;12.12;32.31;101932.25;4993351;28;20524;-51
2022/03/03 11:54:09;;;;;;;27.70;14.90;;;;;;;11.96;32.39;101945.75;4969633;28;20120;-56
2022/03/03 11:56:36;;;;;;;27.83;14.85;;;;;;;11.97;32.78;101938.81;4977874;28;20336;-50
2022/03/03 11:59:12;;;;;;;25.27;14.45;;;;;;;12.04;33.12;101930.28;4967106;28;20070;-49
2022/03/03 12:01:56;;;;;;;29.23;15.88;;;;;;;12.08;33.40;101930.38;4981719;28;20045;-53
2022/03/03 12:04:25;;;;;;;28.85;15.25;;;;;;;12.04;33.51;101928.56;4987410;28;20042;-54
2022/03/03 12:06:51;;;;;;;29.23;15.32;;;;;;;12.24;33.09;101928.16;4969567;28;20057;-54
2022/03/03 12:09:22;;;;;;;29.15;15.50;;;;;;;12.32;33.54;101930.06;4980478;28;20478;-53
2022/03/03 12:11:49;;;;;;;27.83;15.32;;;;;;;12.04;33.26;101932.91;4982171;28;20044;-54
2022/03/03 12:14:33;;;;;;;30.33;15.45;;;;;;;12.18;33.41;101921.94;4982323;28;20042;-51
2022/03/03 12:17:38;;;;;;;28.23;15.13;;;;;;;11.99;33.29;101944.97;4963558;28;20539;-49
2022/03/03 12:20:32;;;;;;;27.20;14.25;;;;;;;12.04;32.30;101915.47;4984542;28;20052;-49
2022/03/03 12:23:12;;;;;;;26.70;15.00;;;;;;;12.03;32.44;101915.44;4972298;28;20127;-52
2022/03/03 12:25:58;;;;;;;26.48;15.00;;;;;;;12.16;32.68;101922.72;4976177;28;20069;-52
2022/03/03 12:28:45;;;;;;;27.88;13.77;;;;;;;12.45;30.99;101918.16;4978334;28;20086;-49
2022/03/03 12:31:30;;;;;;;24.20;14.00;;;;;;;12.48;30.50;101926.97;4971172;28;20104;-54
2022/03/03 12:34:08;;;;;;;27.50;13.63;;;;;;;12.45;30.29;101912.94;4978843;28;20061;-54
2022/03/03 12:36:36;;;;;;;24.02;13.90;;;;;;;12.70;30.64;101909.09;4975081;28;20053;-51
2022/03/03 12:39:04;;;;;;;24.75;13.70;;;;;;;12.86;30.07;101919.06;4968461;28;20500;-49
2022/03/03 12:41:33;;;;;;;28.38;14.38;;;;;;;12.79;30.47;101918.06;4976348;28;20198;-53
2022/03/03 12:44:10;;;;;;;25.45;14.38;;;;;;;12.86;31.37;101917.34;4979979;28;20049;-54
2022/03/03 12:46:36;;;;;;;25.60;13.68;;;;;;;12.37;30.41;101922.34;4978236;28;20125;-53
2022/03/03 12:49:06;;;;;;;23.40;14.00;;;;;;;12.64;30.58;101908.97;4974718;28;20036;-52
2022/03/03 12:51:32;;;;;;;24.45;13.15;;;;;;;12.74;30.39;101914.47;4978470;28;20053;-54
2022/03/03 12:54:02;;;;;;;25.42;13.85;;;;;;;12.76;29.67;101909.25;4977739;28;20582;-54
2022/03/03 12:56:28;;;;;;;24.80;13.65;;;;;;;13.08;30.04;101902.03;4982392;28;20062;-50
2022/03/03 12:58:54;;;;;;;29.35;14.15;;;;;;;12.95;30.56;101909.66;4970257;28;20081;-52
2022/03/03 13:01:23;;;;;;;23.27;13.75;;;;;;;12.92;30.43;101903.50;4973154;28;20497;-52
2022/03/03 13:03:49;;;;;;;22.33;13.68;;;;;;;13.09;29.53;101901.19;4979502;28;20088;-54
2022/03/03 13:06:18;;;;;;;24.33;13.82;;;;;;;13.16;29.94;101890.91;4976022;28;20121;-50
2022/03/03 13:08:44;;;;;;;24.00;14.20;;;;;;;13.06;29.87;101890.66;4977285;28;20790;-55
2022/03/03 13:11:14;;;;;;;33.47;14.55;;;;;;;13.27;30.70;101891.09;4963479;28;20610;-53
2022/03/03 13:13:48;;;;;;;25.55;14.48;;;;;;;13.21;30.47;101886.63;4977974;28;20061;-51
2022/03/03 13:16:16;;;;;;;26.13;14.32;;;;;;;13.17;30.53;101897.03;4996059;28;20634;-54
2022/03/03 13:18:43;;;;;;;32.60;14.02;;;;;;;13.37;29.24;101880.81;4979197;28;20045;-51
2022/03/03 13:21:10;;;;;;;25.20;14.00;;;;;;;13.48;30.20;101881.00;4955944;28;20132;-53
2022/03/03 13:23:40;;;;;;;25.00;14.43;;;;;;;13.42;30.12;101888.75;4979740;28;20061;-53
2022/03/03 13:26:12;;;;;;;25.30;14.60;;;;;;;13.30;29.80;101885.91;4979294;28;20137;-52
2022/03/03 13:28:46;;;;;;;25.08;14.25;;;;;;;13.24;30.22;101883.19;4971133;28;20362;-52
2022/03/03 13:31:14;;;;;;;26.53;14.10;;;;;;;13.47;30.18;101886.22;4971599;28;20164;-51
2022/03/03 13:33:44;;;;;;;24.08;14.85;;;;;;;13.45;29.44;101878.34;4983273;28;20033;-50
2022/03/03 13:36:18;;;;;;;25.02;13.65;;;;;;;13.66;29.41;101881.31;4979877;28;20517;-53
2022/03/03 13:38:44;;;;;;;;;;;;;;;13.38;30.05;101886.94;4981510;28;20053;-52
2022/03/03 13:41:24;;;;;;;23.58;13.85;;;;;;;13.69;30.06;101867.41;4974228;28;19972;-52
2022/03/03 13:44:11;;;;;;;26.27;14.50;;;;;;;13.78;30.15;101873.66;4983125;28;20038;-54
2022/03/03 13:46:37;;;;;;;27.42;14.68;;;;;;;13.46;30.90;101882.72;4974906;28;20764;-54
2022/03/03 13:49:03;;;;;;;26.75;14.85;;;;;;;13.60;30.33;101868.09;4978562;28;20038;-50
2022/03/03 13:51:29;;;;;;;24.38;14.02;;;;;;;13.33;30.43;101865.03;4983581;28;20103;-50
2022/03/03 13:53:56;;;;;;;25.20;14.77;;;;;;;13.30;30.75;101870.19;4986121;28;20045;-54
2022/03/03 13:56:26;;;;;;;29.60;15.00;;;;;;;13.36;30.41;101863.34;4989789;28;20161;-54
2022/03/03 13:59:11;;;;;;;25.95;15.32;;;;;;;13.52;30.94;101861.00;4976800;28;20126;-50
2022/03/03 14:01:37;;;;;;;29.02;15.30;;;;;;;13.26;31.35;101868.38;4983423;28;20164;-50
2022/03/03 14:04:13;;;;;;;29.77;16.15;;;;;;;13.37;31.89;101867.72;4983951;28;20779;-52
2022/03/03 14:06:46;;;;;;;28.00;16.17;;;;;;;13.32;32.28;101860.63;4988849;28;20516;-54
2022/03/03 14:09:25;;;;;;;27.15;16.08;;;;;;;13.36;31.99;101857.22;4978075;28;20481;-50
2022/03/03 14:11:50;;;;;;;26.48;15.00;;;;;;;13.40;31.72;101861.66;4980655;28;20317;-52
2022/03/03 14:14:20;;;;;;;28.48;15.15;;;;;;;13.40;30.56;101862.56;4990671;28;20119;-50
2022/03/03 14:16:47;;;;;;;27.15;13.73;;;;;;;13.51;30.88;101849.63;4980418;28;20065;-51
2022/03/03 14:19:12;;;;;;;27.48;14.73;;;;;;;13.58;30.90;101853.25;4986482;28;20045;-54
2022/03/03 14:21:39;;;;;;;25.60;15.23;;;;;;;13.76;31.34;101856.16;4977483;28;20466;-50
2022/03/03 14:24:05;;;;;;;25.45;15.20;;;;;;;13.72;30.76;101849.13;4983633;28;20505;-49
2022/03/03 14:26:31;;;;;;;27.90;16.45;;;;;;;13.58;31.65;101853.25;4973999;28;20496;-51
2022/03/03 14:28:57;;;;;;;25.90;15.60;;;;;;;13.17;31.92;101856.03;4972699;28;20037;-50
2022/03/03 14:31:23;;;;;;;29.63;16.55;;;;;;;13.35;32.04;101861.59;4975231;28;20045;-49
2022/03/03 14:33:48;;;;;;;29.92;15.93;;;;;;;13.31;31.83;101859.75;4980532;28;20053;-50
2022/03/03 14:36:14;;;;;;;30.35;16.85;;;;;;;13.16;32.54;101863.84;4982315;28;20785;-51
2022/03/03 14:38:40;;;;;;;32.97;16.38;;;;;;;13.15;32.53;101855.09;4973813;28;20103;-49
2022/03/03 14:41:05;;;;;;;28.05;16.20;;;;;;;13.13;33.04;101869.88;4972712;28;20381;-50
2022/03/03 14:43:37;;;;;;;28.60;16.75;;;;;;;13.09;33.16;101859.31;4987369;28;20049;-52
2022/03/03 14:46:04;;;;;;;28.40;16.60;;;;;;;13.07;32.48;101868.84;4980606;28;20053;-50
2022/03/03 14:48:32;;;;;;;29.80;16.08;;;;;;;13.12;32.07;101852.41;4983001;28;20068;-52
2022/03/03 14:50:58;;;;;;;27.35;15.95;;;;;;;13.09;32.84;101854.97;4972239;28;20053;-54
2022/03/03 14:53:26;;;;;;;33.33;16.35;;;;;;;12.99;32.50;101853.03;4985739;28;20052;-52
2022/03/03 14:55:52;;;;;;;27.75;15.52;;;;;;;13.15;31.55;101846.38;4977206;28;20448;-52
2022/03/03 14:58:18;;;;;;;28.90;15.98;;;;;;;12.82;32.02;101846.56;4983093;28;20282;-54
2022/03/03 15:00:43;;;;;;;26.88;15.60;;;;;;;12.94;31.80;101844.19;4985299;28;20042;-50
2022/03/03 15:03:09;;;;;;;29.77;15.90;;;;;;;12.92;31.52;101853.75;4968699;28;20145;-51
2022/03/03 15:05:34;;;;;;;26.60;15.65;;;;;;;12.95;32.02;101854.69;4980516;28;20566;-53
2022/03/03 15:08:01;;;;;;;28.58;15.80;;;;;;;12.82;32.42;101855.28;4974850;28;20599;-50
2022/03/03 15:10:27;;;;;;;28.35;15.73;;;;;;;13.04;32.19;101856.63;4981693;28;20147;-50
2022/03/03 15:12:53;;;;;;;30.88;15.90;;;;;;;12.92;33.83;101859.00;4974667;28;20962;-52
2022/03/03 15:15:19;;;;;;;23.95;14.15;;;;;;;12.87;31.64;101852.75;4982174;28;20092;-50
2022/03/03 15:17:44;;;;;;;26.20;13.60;;;;;;;12.66;30.19;101848.00;4985768;28;20525;-50
2022/03/03 15:20:10;;;;;;;24.08;14.13;;;;;;;13.01;29.67;101839.09;4984709;28;20041;-50
2022/03/03 15:22:36;;;;;;;25.13;13.95;;;;;;;12.86;30.05;101848.41;4982837;28;21768;-54
2022/03/03 15:25:02;;;;;;;24.88;14.30;;;;;;;12.90;30.16;101853.72;4980704;28;20120;-54
2022/03/03 15:27:29;;;;;;;25.83;13.95;;;;;;;12.84;30.08;101858.84;4978966;28;20580;-54
2022/03/03 15:29:55;;;;;;;23.02;13.93;;;;;;;12.76;30.20;101849.94;4987452;28;20497;-50
2022/03/03 15:32:22;;;;;;;25.30;13.77;;;;;;;12.77;30.64;101837.75;4978019;28;20138;-54
2022/03/03 15:37:32;;;;;;;24.00;14.15;;;;;;;13.11;30.03;101839.28;4981012;28;20048;-55
2022/03/03 15:39:57;;;;;;;25.05;14.40;;;;;;;13.02;31.47;101835.63;4982827;28;20038;-53
2022/03/03 15:42:23;;;;;;;25.02;14.07;;;;;;;12.82;30.55;101834.38;4991378;28;20132;-54
2022/03/03 15:44:49;;;;;;;26.27;14.20;;;;;;;12.84;30.49;101839.63;4975054;28;20407;-54
2022/03/03 15:47:14;;;;;;;25.63;14.75;;;;;;;12.90;30.69;101829.28;4984819;28;20046;-54
2022/03/03 15:49:40;;;;;;;23.90;14.13;;;;;;;13.18;30.08;101834.19;4977373;28;20042;-51
2022/03/03 15:52:07;;;;;;;26.58;14.70;;;;;;;13.20;29.63;101840.34;4980224;28;20537;-53
2022/03/03 15:54:33;;;;;;;25.75;14.70;;;;;;;13.24;30.09;101844.78;4980803;28;20075;-50
2022/03/03 15:56:58;;;;;;;25.95;14.93;;;;;;;12.99;30.91;101838.19;4975555;28;20527;-54
2022/03/03 15:59:24;;;;;;;23.48;14.55;;;;;;;13.11;30.11;101834.06;4974509;28;20716;-55
2022/03/03 16:01:50;;;;;;;26.63;14.88;;;;;;;12.77;30.15;101840.38;4979858;28;20041;-55
2022/03/03 16:04:18;;;;;;;23.73;14.10;;;;;;;12.89;30.25;101825.78;4981606;28;20143;-55
2022/03/03 16:06:45;;;;;;;28.02;14.73;;;;;;;13.06;30.19;101828.72;4979816;28;20058;-51
2022/03/03 16:09:15;;;;;;;25.02;14.57;;;;;;;13.06;30.37;101825.19;4973015;28;20123;-54
2022/03/03 16:11:42;;;;;;;26.50;14.30;;;;;;;13.10;30.64;101825.31;4981949;28;20052;-53
2022/03/03 16:14:08;;;;;;;24.10;14.40;;;;;;;12.77;30.60;101833.41;4982854;28;20049;-54
2022/03/03 16:16:34;;;;;;;26.70;14.52;;;;;;;12.69;31.17;101821.00;4981898;28;20124;-53
2022/03/03 16:18:59;;;;;;;31.83;13.98;;;;;;;12.70;30.58;101822.78;4977544;28;20536;-53
2022/03/03 16:21:26;;;;;;;27.60;14.90;;;;;;;12.79;31.06;101816.00;4981023;28;20064;-55
2022/03/03 16:23:51;;;;;;;26.83;14.55;;;;;;;12.67;30.76;101822.72;4980594;28;20144;-53
2022/03/03 16:26:18;;;;;;;28.50;15.43;;;;;;;12.73;30.85;101826.34;4979080;28;20038;-52
2022/03/03 16:28:44;;;;;;;26.23;14.32;;;;;;;12.55;30.66;101826.88;4988723;28;20125;-53
2022/03/03 16:31:47;;;;;;;24.80;14.30;;;;;;;12.71;30.53;101829.78;4966541;28;20895;-52
2022/03/03 16:34:13;;;;;;;24.85;14.35;;;;;;;12.71;31.16;101827.16;4985568;28;20061;-52
2022/03/03 16:36:39;;;;;;;25.10;14.30;;;;;;;12.87;30.63;101839.69;4984415;28;20075;-54
2022/03/03 16:39:09;;;;;;;26.70;14.10;;;;;;;12.79;31.22;101842.16;4968114;28;20078;-53
2022/03/03 16:41:35;;;;;;;24.63;13.93;;;;;;;12.64;30.89;101836.63;4983785;28;20042;-51
2022/03/03 16:44:01;;;;;;;24.38;13.93;;;;;;;12.53;31.11;101845.97;4977223;28;20139;-53
2022/03/03 16:46:27;;;;;;;23.38;13.50;;;;;;;12.50;30.92;101849.41;4984957;28;20342;-51
2022/03/03 16:48:55;;;;;;;23.67;13.32;;;;;;;12.35;31.13;101849.09;4975805;28;20586;-55
2022/03/03 16:51:21;;;;;;;27.02;13.65;;;;;;;12.25;30.91;101854.09;4977747;28;20215;-53
2022/03/03 16:53:47;;;;;;;23.85;13.05;;;;;;;12.15;29.88;101853.00;4983101;28;20049;-54
2022/03/03 16:56:13;;;;;;;22.63;13.05;;;;;;;12.24;29.88;101850.59;4982953;28;20054;-53
2022/03/03 16:58:39;;;;;;;25.52;13.48;;;;;;;12.05;30.64;101859.75;4972499;28;20177;-53
2022/03/03 17:01:05;;;;;;;23.02;12.95;;;;;;;12.04;30.04;101851.88;4971250;28;20210;-49
2022/03/03 17:03:31;;;;;;;22.02;12.85;;;;;;;12.08;29.68;101858.91;4977327;28;20049;-49
2022/03/03 17:05:56;;;;;;;22.50;12.75;;;;;;;12.01;30.19;101863.16;4981004;28;20045;-52
2022/03/03 17:08:23;;;;;;;22.90;12.85;;;;;;;11.92;30.47;101862.94;4981574;28;20050;-54
2022/03/03 17:10:48;;;;;;;23.58;12.43;;;;;;;11.83;30.45;101864.44;4973749;28;20068;-50
2022/03/03 17:13:14;;;;;;;22.10;12.55;;;;;;;11.90;30.33;101869.84;4971950;28;20069;-52
2022/03/03 17:15:40;;;;;;;26.45;12.90;;;;;;;11.92;31.00;101867.28;4984192;28;20053;-55
2022/03/03 17:18:05;;;;;;;20.00;12.80;;;;;;;11.83;30.45;101872.28;4975930;28;20102;-52
2022/03/03 17:20:30;;;;;;;22.02;12.85;;;;;;;11.63;31.16;101882.22;4977996;28;20042;-52
2022/03/03 17:22:56;;;;;;;23.25;12.93;;;;;;;11.63;31.25;101877.88;4978687;28;20132;-50
2022/03/03 17:25:21;;;;;;;23.17;12.70;;;;;;;11.62;31.19;101878.72;4982329;28;20409;-54
2022/03/03 17:27:46;;;;;;;25.33;13.20;;;;;;;11.54;31.55;101887.19;4986450;28;20121;-54
2022/03/03 17:30:12;;;;;;;21.88;12.73;;;;;;;11.46;31.16;101887.00;4983541;28;20163;-53
2022/03/03 17:32:38;;;;;;;25.58;12.95;;;;;;;11.46;31.51;101878.28;4981515;28;20560;-52
2022/03/03 17:35:04;;;;;;;25.63;12.93;;;;;;;11.38;31.44;101880.69;4981679;28;20471;-53
2022/03/03 17:37:29;;;;;;;22.77;12.73;;;;;;;11.22;32.57;101887.22;4986020;28;20037;-51
2022/03/03 17:39:55;;;;;;;24.73;13.10;;;;;;;11.18;31.98;101892.31;4982817;28;20630;-53
2022/03/03 17:42:22;;;;;;;23.60;12.93;;;;;;;11.14;32.24;101899.22;4978215;28;20791;-52
2022/03/03 17:44:49;;;;;;;23.70;13.30;;;;;;;11.14;32.26;101896.59;4982616;28;20030;-54
2022/03/03 17:47:15;;;;;;;28.30;13.18;;;;;;;11.04;32.87;101898.91;4987192;28;20049;-52
2022/03/03 17:49:41;;;;;;;25.83;13.55;;;;;;;10.95;33.24;101904.75;4988655;28;20037;-53
2022/03/03 17:52:06;;;;;;;23.95;13.35;;;;;;;10.87;32.56;101903.63;4982961;28;20030;-52
2022/03/03 17:54:32;;;;;;;28.27;14.00;;;;;;;10.80;33.22;101899.97;4975525;28;20038;-55
2022/03/03 17:56:57;;;;;;;23.73;13.18;;;;;;;10.73;33.85;101905.88;4979412;28;20046;-54
2022/03/03 17:59:23;;;;;;;25.27;13.00;;;;;;;10.71;33.36;101906.66;4981162;28;20073;-54
2022/03/03 18:01:48;;;;;;;28.40;13.43;;;;;;;10.75;33.30;101905.91;4971563;28;20046;-52
2022/03/03 18:04:14;;;;;;;23.75;12.88;;;;;;;10.63;33.84;101918.56;4979037;28;20420;-51
2022/03/03 18:06:39;;;;;;;23.52;13.50;;;;;;;10.58;33.74;101910.63;4982500;28;20392;-52
2022/03/03 18:09:06;;;;;;;26.52;13.52;;;;;;;10.55;33.96;101911.41;4964604;28;20627;-54
2022/03/03 18:11:33;;;;;;;24.42;13.52;;;;;;;10.51;34.21;101922.59;4980187;28;20078;-51
2022/03/03 18:13:59;;;;;;;26.83;14.10;;;;;;;10.51;34.10;101927.81;4997147;28;20775;-52
2022/03/03 18:16:25;;;;;;;30.38;14.50;;;;;;;10.55;34.06;101923.59;4981589;28;20045;-51
2022/03/03 18:18:51;;;;;;;26.17;13.95;;;;;;;10.55;33.99;101920.97;4965556;28;20029;-54
2022/03/03 18:21:17;;;;;;;31.23;14.18;;;;;;;10.54;34.28;101920.09;4988425;28;20512;-52
2022/03/03 18:23:43;;;;;;;26.48;14.73;;;;;;;10.54;34.86;101925.31;4982260;28;20072;-52
2022/03/03 18:26:08;;;;;;;29.02;14.75;;;;;;;10.42;34.26;101931.88;4973107;28;20605;-53
2022/03/03 18:28:34;;;;;;;27.05;14.45;;;;;;;10.34;35.10;101934.22;4980381;28;20164;-51
2022/03/03 18:30:59;;;;;;;25.75;14.70;;;;;;;10.29;34.82;101930.59;4975181;28;20744;-53
2022/03/03 18:33:24;;;;;;;25.85;14.05;;;;;;;10.29;35.12;101937.53;4986075;28;20200;-51
2022/03/03 18:35:52;;;;;;;28.75;15.18;;;;;;;10.28;35.45;101936.66;4982460;28;20112;-50
2022/03/03 18:38:19;;;;;;;29.48;15.18;;;;;;;10.38;35.20;101948.22;4990319;28;20095;-52
2022/03/03 18:40:46;;;;;;;28.27;15.07;;;;;;;10.36;35.38;101945.59;4980489;28;20033;-54
2022/03/03 18:43:13;;;;;;;29.48;15.02;;;;;;;10.25;35.83;101943.47;4981727;28;20049;-53
2022/03/03 18:45:40;;;;;;;27.75;14.80;;;;;;;10.14;35.66;101951.81;5000279;28;20066;-53
2022/03/03 18:48:07;;;;;;;26.67;14.55;;;;;;;10.06;36.26;101947.19;4988317;28;20312;-54
2022/03/03 18:50:34;;;;;;;26.50;14.35;;;;;;;10.00;36.38;101944.41;4987332;28;20045;-51
2022/03/03 18:52:59;;;;;;;25.13;14.35;;;;;;;10.00;36.46;101947.00;4974947;28;20044;-53
2022/03/03 18:55:25;;;;;;;27.85;14.60;;;;;;;9.95;36.07;101952.03;4978994;28;20405;-51
2022/03/03 18:57:51;;;;;;;27.83;14.85;;;;;;;9.85;36.89;101946.47;4985820;28;20060;-50
2022/03/03 19:00:17;;;;;;;28.67;15.25;;;;;;;9.81;36.83;101947.22;4980594;28;20041;-51
2022/03/03 19:02:46;;;;;;;26.13;14.73;;;;;;;9.81;36.83;101950.72;4985280;28;20119;-56
2022/03/03 19:05:11;;;;;;;27.40;15.13;;;;;;;9.71;37.20;101957.31;4974659;28;21695;-54
2022/03/03 19:07:36;;;;;;;30.30;16.13;;;;;;;9.70;37.66;101960.75;4981374;28;20054;-52
2022/03/03 19:10:03;;;;;;;29.38;15.65;;;;;;;9.58;38.11;101955.13;4981516;28;20168;-55
2022/03/03 19:12:28;;;;;;;28.88;15.05;;;;;;;9.50;37.74;101963.50;4982226;28;20034;-53
2022/03/03 19:14:54;;;;;;;27.98;15.50;;;;;;;9.45;37.82;101967.69;4968066;28;20046;-50
2022/03/03 19:17:19;;;;;;;28.80;15.45;;;;;;;9.36;38.26;101976.91;4978656;28;20420;-52
2022/03/03 19:19:44;;;;;;;30.40;16.88;;;;;;;9.30;38.19;101970.59;4981816;28;20543;-51
2022/03/03 19:22:10;;;;;;;33.40;17.40;;;;;;;9.26;38.52;101976.53;4975626;28;20057;-55
2022/03/03 19:24:36;;;;;;;32.15;17.42;;;;;;;9.18;38.30;101976.25;4981944;28;20052;-56
2022/03/03 19:27:04;;;;;;;30.30;16.05;;;;;;;9.18;38.87;101977.97;4972100;28;20445;-54
2022/03/03 19:29:29;;;;;;;31.95;16.92;;;;;;;9.15;38.59;101985.69;4974846;28;20496;-54
2022/03/03 19:34:39;;;;;;;32.85;16.83;;;;;;;9.01;39.28;101984.28;4979742;28;20208;-53
2022/03/03 19:37:05;;;;;;;33.85;17.42;;;;;;;8.90;39.41;101983.88;4971764;28;20689;-54
2022/03/03 19:39:32;;;;;;;32.92;17.58;;;;;;;8.93;39.96;101989.19;4979634;28;20038;-53
2022/03/03 19:41:59;;;;;;;33.85;16.77;;;;;;;8.92;39.58;101993.50;4972683;28;20529;-53
2022/03/03 19:44:24;;;;;;;32.15;16.42;;;;;;;8.92;39.78;101995.19;4983807;28;20046;-50
2022/03/03 19:46:50;;;;;;;29.70;16.45;;;;;;;8.91;39.65;101983.91;4973182;28;20444;-53
2022/03/03 19:49:15;;;;;;;31.45;16.90;;;;;;;8.90;39.76;101989.06;4981831;28;20057;-53
2022/03/03 19:51:40;;;;;;;32.85;16.17;;;;;;;8.92;39.76;101987.41;4979121;28;20050;-54
2022/03/03 19:54:06;;;;;;;31.83;16.80;;;;;;;8.89;40.04;101977.78;4982005;28;20052;-54
2022/03/03 19:56:35;;;;;;;34.13;17.05;;;;;;;8.88;39.83;101988.13;4973032;28;20104;-51
2022/03/03 19:59:03;;;;;;;30.88;16.80;;;;;;;8.85;40.09;101988.00;4971650;28;20062;-49
2022/03/03 20:01:29;;;;;;;31.80;16.80;;;;;;;8.81;40.55;101997.41;4993875;28;20046;-52
2022/03/03 20:03:54;;;;;;;33.47;17.25;;;;;;;8.78;40.67;101992.06;4981583;28;20060;-52
2022/03/03 20:06:19;;;;;;;31.23;16.23;;;;;;;8.75;40.95;101988.47;4984265;28;20087;-53
2022/03/03 20:11:29;;;;;;;29.17;16.20;;;;;;;8.67;40.47;101990.78;4979669;28;20041;-53
2022/03/03 20:13:54;;;;;;;31.98;16.02;;;;;;;8.65;40.97;102000.25;4979484;28;20413;-53
2022/03/03 20:16:20;;;;;;;31.42;16.25;;;;;;;8.65;41.38;101997.66;4972629;28;20121;-50
2022/03/03 20:18:46;;;;;;;29.75;15.95;;;;;;;8.59;41.56;101996.53;4979670;28;20044;-51
2022/03/03 20:21:12;;;;;;;32.58;15.98;;;;;;;8.63;40.95;102003.59;4976119;28;20165;-51
2022/03/03 20:23:38;;;;;;;30.42;15.48;;;;;;;8.62;41.21;102007.03;4979574;28;20096;-53
2022/03/03 20:26:04;;;;;;;31.92;16.30;;;;;;;8.55;41.49;102011.97;4980520;28;20781;-52
2022/03/03 20:28:31;;;;;;;32.67;15.43;;;;;;;8.50;41.48;102018.72;4981003;28;20045;-53